Time;durP1;ratioP1;P1;durP2;ratioP2;P2;SDS_P1;SDS_P2;PMS_P1;PMS_P2;Temp;Humidity;BMP_temperature;BMP_pressure;BME280_temperature;BME280_humidity;BME280_pressure;Samples;Min_cycle;Max_cycle;Signal;HPM_P1;HPM_P2
2022/09/04 00:01:01;;;;;;;6.35;4.07;;;17.10;99.90;;;16.26;100.00;97337.59;4935613;29;20407;-72
2022/09/04 00:03:38;;;;;;;9.85;4.75;;;17.00;99.90;;;16.22;100.00;97339.25;4935010;29;20502;-72
2022/09/04 00:06:12;;;;;;;14.70;4.90;;;17.00;99.90;;;16.21;100.00;97343.00;4935512;29;20821;-72
2022/09/04 00:08:55;;;;;;;9.00;5.18;;;17.00;99.90;;;16.22;100.00;97341.13;4935393;29;20489;-73
2022/09/04 00:11:37;;;;;;;10.02;4.80;;;17.00;99.90;;;16.19;100.00;97347.03;4935394;29;20471;-73
2022/09/04 00:14:09;;;;;;;9.18;4.93;;;17.00;99.90;;;16.18;100.00;97353.47;4934721;29;20435;-73
2022/09/04 00:16:44;;;;;;;7.97;4.80;;;17.00;99.90;;;16.18;100.00;97340.91;4935256;29;20408;-73
2022/09/04 00:19:20;;;;;;;8.40;4.53;;;17.00;99.90;;;16.18;100.00;97346.25;4935145;29;20510;-72
2022/09/04 00:21:52;;;;;;;10.30;4.40;;;17.00;99.90;;;16.18;100.00;97342.78;4935105;29;20412;-73
2022/09/04 00:24:23;;;;;;;6.47;4.20;;;17.00;99.90;;;16.16;100.00;97345.72;4933281;29;20887;-72
2022/09/04 00:26:57;;;;;;;7.18;4.38;;;17.00;99.90;;;16.14;100.00;97347.91;4935054;29;20424;-72
2022/09/04 00:29:38;;;;;;;6.93;4.50;;;17.00;99.90;;;16.13;100.00;97343.66;4934891;29;20410;-72
2022/09/04 00:32:13;;;;;;;8.00;4.50;;;17.00;99.90;;;16.12;100.00;97343.94;4934991;29;20447;-72
2022/09/04 00:34:56;;;;;;;9.68;4.22;;;17.00;99.90;;;16.10;100.00;97343.41;4934323;29;20894;-72
2022/09/04 00:37:31;;;;;;;6.20;4.10;;;16.90;99.90;;;16.09;100.00;97349.84;4934818;29;20407;-72
2022/09/04 00:40:04;;;;;;;6.43;4.55;;;16.90;99.90;;;16.07;100.00;97357.38;4934578;29;20514;-72
2022/09/04 00:43:09;;;;;;;6.32;4.38;;;16.90;99.90;;;16.05;100.00;97360.31;4934621;29;20422;-72
2022/09/04 00:46:00;;;;;;;8.10;4.40;;;16.90;99.90;;;15.99;100.00;97345.44;4934620;29;20407;-72
2022/09/04 00:49:15;;;;;;;9.60;4.30;;;16.80;99.90;;;15.98;100.00;97357.19;4933342;29;20826;-72
2022/09/04 00:51:51;;;;;;;6.10;4.10;;;16.90;99.90;;;15.96;100.00;97350.53;4934433;29;20418;-73
2022/09/04 00:54:43;;;;;;;11.32;4.97;;;16.80;99.90;;;15.90;100.00;97349.81;4934068;29;20407;-72
2022/09/04 00:57:54;;;;;;;7.13;4.68;;;16.80;99.90;;;15.90;100.00;97355.16;4934685;29;20414;-73
2022/09/04 01:00:21;;;;;;;8.45;5.03;;;16.70;99.90;;;15.89;100.00;97361.56;4934338;29;20450;-73
2022/09/04 01:03:22;;;;;;;8.70;4.95;;;16.70;99.90;;;15.90;100.00;97362.38;4933984;29;20925;-73
2022/09/04 01:06:41;;;;;;;7.82;4.88;;;16.70;99.90;;;15.91;100.00;97358.63;4934431;29;20767;-73
2022/09/04 01:09:45;;;;;;;9.67;5.20;;;16.70;99.90;;;15.90;100.00;97373.06;4874939;29;20583;-72
2022/09/04 01:12:28;;;;;;;7.13;4.88;;;16.70;99.90;;;15.87;100.00;97372.53;4856787;29;20539;-73
2022/09/04 01:15:13;;;;;;;9.75;5.00;;;16.70;99.90;;;15.84;100.00;97375.78;4925511;29;21052;-73
2022/09/04 01:18:01;;;;;;;10.00;4.60;;;16.70;99.90;;;15.82;100.00;97372.59;4934152;29;20407;-73
2022/09/04 01:20:50;;;;;;;7.22;4.60;;;16.70;99.90;;;15.80;100.00;97385.44;4934171;29;20510;-72
2022/09/04 01:23:51;;;;;;;6.30;4.35;;;16.60;99.90;;;15.78;100.00;97384.94;4933501;29;20412;-72
2022/09/04 01:26:30;;;;;;;9.23;5.10;;;16.60;99.90;;;15.78;100.00;97370.81;4933930;29;20415;-72
2022/09/04 01:29:13;;;;;;;9.00;5.10;;;16.60;99.90;;;15.77;100.00;97380.69;4935052;29;20416;-72
2022/09/04 01:31:47;;;;;;;7.83;5.20;;;16.60;99.90;;;15.79;100.00;97386.50;4933846;29;20412;-73
2022/09/04 01:34:34;;;;;;;7.93;5.05;;;16.60;99.90;;;15.79;100.00;97388.38;4933335;29;20446;-72
2022/09/04 01:37:18;;;;;;;8.05;4.60;;;16.60;99.90;;;15.78;100.00;97386.81;4933907;29;20407;-72
2022/09/04 01:39:55;;;;;;;6.93;4.75;;;16.60;99.90;;;15.75;100.00;97382.03;4933573;29;20519;-71
2022/09/04 01:42:34;;;;;;;6.45;4.80;;;16.60;99.90;;;15.75;100.00;97385.50;4933623;29;20415;-71
2022/09/04 01:45:01;;;;;;;8.18;4.80;;;16.60;99.90;;;15.70;100.00;97393.56;4933392;29;20488;-74
2022/09/04 01:47:35;;;;;;;8.25;4.82;;;16.60;99.90;;;15.69;100.00;97391.19;4933627;29;20454;-73
2022/09/04 01:50:07;;;;;;;6.88;5.03;;;16.50;99.90;;;15.72;100.00;97393.25;4933505;29;20794;-73
2022/09/04 01:52:47;;;;;;;8.10;4.93;;;16.50;99.90;;;15.74;100.00;97391.91;4933546;29;20419;-73
2022/09/04 01:55:25;;;;;;;6.10;4.88;;;16.60;99.90;;;15.73;100.00;97395.66;4933607;29;20411;-73
2022/09/04 02:01:04;;;;;;;7.80;4.60;;;16.60;99.90;;;15.77;100.00;97401.22;4949118;29;20450;-75
2022/09/04 02:03:39;;;;;;;6.32;4.45;;;16.50;99.90;;;15.77;100.00;97398.56;4949898;29;20406;-74
2022/09/04 02:06:21;;;;;;;5.60;4.78;;;16.50;99.90;;;15.73;100.00;97405.53;4952474;29;20413;-74
2022/09/04 02:09:11;;;;;;;7.45;4.90;;;16.50;99.90;;;15.72;100.00;97399.41;4948477;28;20403;-74
2022/09/04 02:11:44;;;;;;;7.93;4.73;;;16.50;99.90;;;15.71;100.00;97408.47;4933310;29;20494;-74
2022/09/04 02:14:31;;;;;;;6.95;4.88;;;16.50;99.90;;;15.69;100.00;97409.84;4932817;29;20487;-74
2022/09/04 02:17:08;;;;;;;7.82;5.35;;;16.50;99.90;;;15.68;100.00;97402.94;4933318;29;20455;-74
2022/09/04 02:19:53;;;;;;;7.57;4.67;;;16.50;99.90;;;15.67;100.00;97410.13;4932194;29;20520;-74
2022/09/04 02:22:32;;;;;;;6.75;4.70;;;16.50;99.90;;;15.66;100.00;97403.19;4933197;29;20411;-74
2022/09/04 02:25:09;;;;;;;7.18;4.70;;;16.50;99.90;;;15.66;100.00;97413.06;4932797;29;20412;-74
2022/09/04 02:27:49;;;;;;;6.72;4.65;;;16.50;99.90;;;15.63;100.00;97408.31;4933262;29;21012;-74
2022/09/04 02:30:18;;;;;;;10.75;4.80;;;16.40;99.90;;;15.59;100.00;97409.94;4933116;29;20508;-74
2022/09/04 02:32:55;;;;;;;5.55;4.28;;;16.40;99.90;;;15.55;100.00;97412.41;4932767;29;20486;-73
2022/09/04 02:35:29;;;;;;;7.65;4.53;;;16.40;99.90;;;15.52;100.00;97414.78;4933204;29;20415;-74
2022/09/04 02:38:06;;;;;;;6.00;4.65;;;16.40;99.90;;;15.48;100.00;97417.25;4933193;29;20415;-73
2022/09/04 02:40:44;;;;;;;5.80;4.68;;;16.40;99.90;;;15.45;100.00;97421.25;4932883;29;20451;-73
2022/09/04 02:43:34;;;;;;;7.22;4.97;;;16.30;99.90;;;15.42;100.00;97418.34;4932580;29;20407;-73
2022/09/04 02:46:08;;;;;;;6.57;5.07;;;16.30;99.90;;;15.38;100.00;97415.47;4933037;29;20478;-74
2022/09/04 02:48:50;;;;;;;6.45;4.97;;;16.30;99.90;;;15.35;100.00;97418.69;4932968;28;20909;-74
2022/09/04 02:51:30;;;;;;;9.32;5.00;;;16.20;99.90;;;15.32;100.00;97418.44;4932999;29;20412;-74
2022/09/04 02:54:07;;;;;;;5.95;4.63;;;16.20;99.90;;;15.28;100.00;97409.41;4932540;29;20442;-74
2022/09/04 02:56:47;;;;;;;5.72;4.82;;;16.10;99.90;;;15.24;100.00;97419.84;4933029;29;20418;-73
2022/09/04 02:59:30;;;;;;;10.05;4.70;;;16.10;99.90;;;15.21;100.00;97416.94;4932633;29;20438;-74
2022/09/04 03:02:01;;;;;;;9.95;4.40;;;16.10;99.90;;;15.18;100.00;97417.50;4932929;29;20498;-73
2022/09/04 03:04:38;;;;;;;8.63;4.57;;;16.10;99.90;;;15.15;100.00;97421.53;4932564;29;20411;-73
2022/09/04 03:07:10;;;;;;;9.05;4.70;;;16.00;99.90;;;15.11;100.00;97423.13;4932979;29;20747;-73
2022/09/04 03:09:44;;;;;;;10.53;4.93;;;16.00;99.90;;;15.08;100.00;97421.06;4932805;29;20875;-73
2022/09/04 03:12:30;;;;;;;9.20;4.83;;;15.90;99.90;;;15.04;100.00;97423.47;4932792;29;20770;-74
2022/09/04 03:15:10;;;;;;;5.28;4.30;;;15.90;99.90;;;15.00;100.00;97419.78;4932328;29;20830;-74
2022/09/04 03:17:48;;;;;;;5.22;4.35;;;15.90;99.90;;;14.97;100.00;97419.50;4932668;29;20968;-74
2022/09/04 03:20:21;;;;;;;6.63;4.80;;;15.90;99.90;;;14.94;100.00;97420.09;4932715;29;20455;-73
2022/09/04 03:22:54;;;;;;;7.28;5.13;;;15.80;99.90;;;14.92;100.00;97422.22;4932207;29;20411;-74
2022/09/04 03:25:53;;;;;;;9.60;4.50;;;15.80;99.90;;;14.89;100.00;97428.09;4932706;29;20944;-73
2022/09/04 03:28:34;;;;;;;7.55;4.10;;;15.80;99.90;;;14.86;100.00;97426.00;4932615;29;20423;-73
2022/09/04 03:31:17;;;;;;;5.53;4.47;;;15.80;99.90;;;14.83;100.00;97426.56;4933554;29;20411;-74
2022/09/04 03:33:52;;;;;;;6.22;4.68;;;15.70;99.90;;;14.81;100.00;97432.16;4935583;29;20474;-74
2022/09/04 03:36:30;;;;;;;12.02;4.78;;;15.70;99.90;;;14.79;100.00;97434.31;4935928;29;20403;-73
2022/09/04 03:39:06;;;;;;;6.50;4.43;;;15.70;99.90;;;14.75;100.00;97435.13;4935726;29;20431;-73
2022/09/04 03:41:44;;;;;;;6.85;4.28;;;15.70;99.90;;;14.71;100.00;97435.69;4935804;29;20418;-73
2022/09/04 03:44:22;;;;;;;7.22;4.30;;;15.60;99.90;;;14.70;100.00;97441.28;4935444;29;20412;-74
2022/09/04 03:47:04;;;;;;;6.60;4.45;;;15.60;99.90;;;14.68;100.00;97438.09;4935733;29;20450;-75
2022/09/04 03:49:47;;;;;;;7.70;4.88;;;15.60;99.90;;;14.66;100.00;97440.25;4935750;29;20403;-74
2022/09/04 03:52:24;;;;;;;9.35;4.70;;;15.60;99.90;;;14.65;100.00;97442.13;4935701;29;20836;-74
2022/09/04 03:55:33;;;;;;;9.95;4.38;;;15.60;99.90;;;14.61;100.00;97435.75;4935280;29;20407;-74
2022/09/04 03:58:12;;;;;;;7.57;4.30;;;15.50;99.90;;;14.57;100.00;97439.25;4895450;29;20427;-73
2022/09/04 04:00:46;;;;;;;9.18;5.45;;;15.50;99.90;;;14.52;100.00;97445.38;4895208;29;20439;-74
2022/09/04 04:03:35;;;;;;;8.73;5.50;;;15.40;99.90;;;14.49;100.00;97442.47;4918042;29;20416;-74
2022/09/04 04:06:17;;;;;;;9.88;5.80;;;15.40;99.90;;;14.47;100.00;97444.63;4935446;29;20414;-74
2022/09/04 04:09:03;;;;;;;11.50;5.18;;;15.40;99.90;;;14.45;100.00;97452.88;4935368;29;20821;-75
2022/09/04 04:11:57;;;;;;;8.60;5.97;;;15.30;99.90;;;14.42;100.00;97450.78;4935382;29;20407;-74
2022/09/04 04:14:44;;;;;;;10.57;5.75;;;15.30;99.90;;;14.41;100.00;97443.06;4932909;29;20424;-75
2022/09/04 04:17:30;;;;;;;9.80;5.80;;;15.30;99.90;;;14.40;100.00;97447.59;4935289;29;20412;-74
2022/09/04 04:20:13;;;;;;;9.35;4.95;;;15.30;99.90;;;14.43;100.00;97454.25;4934992;29;20434;-74
2022/09/04 04:23:14;;;;;;;6.87;5.53;;;15.30;99.90;;;14.37;100.00;97465.94;4934779;29;20474;-74
2022/09/04 04:26:09;;;;;;;13.35;6.10;;;15.30;99.90;;;14.36;100.00;97465.13;4935064;29;20408;-74
2022/09/04 04:29:08;;;;;;;11.10;5.88;;;15.30;99.90;;;14.34;100.00;97468.09;4931299;29;20924;-74
2022/09/04 04:32:11;;;;;;;7.75;5.38;;;15.20;99.90;;;14.32;100.00;97475.53;4934935;29;20407;-74
2022/09/04 04:34:54;;;;;;;7.00;5.10;;;15.20;99.90;;;14.31;100.00;97481.94;4934463;29;20474;-74
2022/09/04 04:37:36;;;;;;;8.57;5.10;;;15.20;99.90;;;14.30;100.00;97484.88;4933635;29;20821;-74
2022/09/04 04:40:14;;;;;;;8.00;5.93;;;15.20;99.90;;;14.28;100.00;97476.38;4934746;29;20834;-74
2022/09/04 04:42:52;;;;;;;10.48;5.55;;;15.20;99.90;;;14.26;100.00;97487.28;4933554;29;20408;-74
2022/09/04 04:48:48;;;;;;;7.78;5.63;;;15.20;99.90;;;14.28;100.00;97495.78;4934654;29;20442;-74
2022/09/04 04:51:39;;;;;;;10.27;6.43;;;15.20;99.90;;;14.27;100.00;97498.75;4934563;29;20416;-74
2022/09/04 04:54:33;;;;;;;8.65;6.40;;;15.20;99.90;;;14.29;100.00;97499.25;4934289;29;20507;-74
2022/09/04 04:57:12;;;;;;;10.00;6.20;;;15.20;99.90;;;14.28;100.00;97501.09;4933906;29;20509;-74
2022/09/04 04:59:50;;;;;;;9.15;5.72;;;15.20;99.90;;;14.28;100.00;97506.44;4934192;29;20526;-74
2022/09/04 05:02:29;;;;;;;7.68;5.57;;;15.20;99.90;;;14.28;100.00;97505.66;4934342;29;20415;-74
2022/09/04 05:05:04;;;;;;;10.07;5.47;;;15.20;99.90;;;14.27;100.00;97509.41;4934019;29;20470;-73
2022/09/04 05:07:39;;;;;;;7.75;5.90;;;15.20;99.90;;;14.25;100.00;97514.97;4934285;29;20495;-73
2022/09/04 05:10:17;;;;;;;8.10;5.82;;;15.20;99.90;;;14.27;100.00;97520.84;4934242;29;20442;-74
2022/09/04 05:13:15;;;;;;;6.88;5.28;;;15.20;99.90;;;14.29;100.00;97521.34;4933834;29;20435;-74
2022/09/04 05:15:48;;;;;;;8.13;5.43;;;15.20;99.90;;;14.26;100.00;97529.09;4933913;29;20419;-74
2022/09/04 05:18:27;;;;;;;7.60;5.38;;;15.10;99.90;;;14.25;100.00;97530.16;4932881;29;20504;-74
2022/09/04 05:21:03;;;;;;;12.50;5.50;;;15.20;99.90;;;14.28;100.00;97537.63;4934005;29;20924;-74
2022/09/04 05:23:38;;;;;;;8.90;4.93;;;15.20;99.90;;;14.28;100.00;97543.72;4933619;29;20507;-74
2022/09/04 05:26:14;;;;;;;7.80;5.30;;;15.20;99.90;;;14.27;100.00;97544.00;4934016;29;20550;-74
2022/09/04 05:28:56;;;;;;;6.25;5.35;;;15.20;99.90;;;14.28;100.00;97543.72;4933858;28;21019;-74
2022/09/04 05:31:35;;;;;;;10.88;5.25;;;15.20;99.90;;;14.30;100.00;97554.91;4933978;29;20802;-74
2022/09/04 05:34:09;;;;;;;7.22;5.65;;;15.20;99.90;;;14.29;100.00;97547.97;4933284;29;20411;-74
2022/09/04 05:36:47;;;;;;;7.40;5.63;;;15.20;99.90;;;14.32;100.00;97555.44;4930526;29;20522;-74
2022/09/04 05:39:26;;;;;;;9.07;5.50;;;15.20;99.90;;;14.37;100.00;97559.94;4932342;29;20449;-73
2022/09/04 05:42:16;;;;;;;8.18;5.53;;;15.20;99.90;;;14.40;100.00;97566.63;4932224;29;20498;-73
2022/09/04 05:45:00;;;;;;;6.60;5.32;;;15.30;99.90;;;14.43;100.00;97574.09;4930163;29;20431;-73
2022/09/04 05:47:45;;;;;;;7.30;5.15;;;15.30;99.90;;;14.48;100.00;97574.06;4932900;29;20423;-73
2022/09/04 05:50:46;;;;;;;8.00;5.75;;;15.40;99.90;;;14.50;100.00;97579.94;4933618;29;20804;-73
2022/09/04 05:53:53;;;;;;;8.60;5.38;;;15.40;99.90;;;14.54;100.00;97580.97;4932927;29;20776;-72
2022/09/04 05:57:04;;;;;;;8.25;5.60;;;15.40;99.90;;;14.58;100.00;97587.38;4933648;29;20836;-73
2022/09/04 06:00:10;;;;;;;7.15;5.10;;;15.40;99.90;;;14.61;100.00;97592.13;4930272;29;20428;-73
2022/09/04 06:03:29;;;;;;;6.15;4.97;;;15.40;99.90;;;14.63;100.00;97592.66;4932330;29;20471;-73
2022/09/04 06:06:10;;;;;;;8.95;5.57;;;15.50;99.90;;;14.66;100.00;97592.09;4931405;29;20458;-71
2022/09/04 06:09:14;;;;;;;9.38;5.70;;;15.50;99.90;;;14.69;100.00;97600.38;4930694;29;20455;-71
2022/09/04 06:11:59;;;;;;;8.90;5.97;;;15.50;99.90;;;14.76;100.00;97592.06;4930849;29;20442;-74
2022/09/04 06:14:43;;;;;;;7.32;5.75;;;15.60;99.90;;;14.81;100.00;97596.59;4930566;29;20414;-75
2022/09/04 06:17:27;;;;;;;11.05;5.88;;;15.60;99.90;;;14.82;100.00;97601.66;4930467;29;20763;-74
2022/09/04 06:20:18;;;;;;;11.60;5.67;;;15.70;99.90;;;14.90;100.00;97603.75;4932649;29;20458;-74
2022/09/04 06:23:19;;;;;;;8.63;5.70;;;15.70;99.90;;;14.97;100.00;97603.44;4932123;29;20411;-73
2022/09/04 06:26:20;;;;;;;7.32;5.40;;;15.80;99.90;;;15.04;100.00;97607.41;4932527;29;20770;-73
2022/09/04 06:29:09;;;;;;;6.45;5.72;;;15.80;99.90;;;15.11;100.00;97609.78;4932407;29;20407;-74
2022/09/04 06:32:20;;;;;;;6.95;5.72;;;15.90;99.90;;;15.16;100.00;97612.44;4931012;29;20406;-72
2022/09/04 06:35:22;;;;;;;9.07;5.83;;;16.00;99.90;;;15.23;100.00;97618.25;4931632;29;20454;-72
2022/09/04 06:38:06;;;;;;;8.48;5.13;;;16.00;99.90;;;15.29;100.00;97621.69;4930059;29;20820;-75
2022/09/04 06:40:50;;;;;;;7.47;5.03;;;16.10;99.90;;;15.32;100.00;97621.97;4932182;29;20852;-75
2022/09/04 06:43:31;;;;;;;8.07;5.00;;;16.10;99.90;;;15.38;100.00;97623.53;4932151;29;20419;-75
2022/09/04 06:46:10;;;;;;;5.50;4.65;;;16.20;99.90;;;15.42;100.00;97618.41;4932467;29;20968;-74
2022/09/04 06:48:51;;;;;;;5.72;4.57;;;16.20;99.90;;;15.47;100.00;97626.41;4932598;29;20416;-75
2022/09/04 06:51:33;;;;;;;7.43;5.00;;;16.30;99.90;;;15.53;100.00;97627.16;4932493;29;20458;-75
2022/09/04 06:54:14;;;;;;;6.72;4.70;;;16.30;99.90;;;15.59;100.00;97620.75;4931008;29;20781;-75
2022/09/04 06:57:04;;;;;;;6.35;4.55;;;16.30;99.90;;;15.67;100.00;97623.63;4932368;29;20847;-75
2022/09/04 06:59:51;;;;;;;7.72;4.60;;;16.40;99.90;;;15.72;100.00;97631.59;4929970;29;20929;-75
2022/09/04 07:02:35;;;;;;;4.90;4.40;;;16.50;99.90;;;15.77;100.00;97630.78;4930819;29;20404;-75
2022/09/04 07:05:18;;;;;;;5.55;4.57;;;16.50;99.90;;;15.81;100.00;97635.25;4931918;29;20423;-75
2022/09/04 07:07:58;;;;;;;6.13;4.07;;;16.60;99.90;;;15.86;100.00;97643.22;4935340;29;20494;-76
2022/09/04 07:10:32;;;;;;;5.25;4.40;;;16.60;99.90;;;15.90;100.00;97643.47;4935898;28;20846;-75
2022/09/04 07:13:35;;;;;;;6.90;4.28;;;16.70;99.90;;;15.96;100.00;97653.03;4935420;29;20408;-76
2022/09/04 07:16:35;;;;;;;5.35;3.70;;;16.70;99.90;;;16.06;100.00;97658.31;4934182;29;20414;-75
2022/09/04 07:19:26;;;;;;;5.37;4.10;;;16.80;99.90;;;16.15;100.00;97648.63;4935358;29;20491;-75
2022/09/04 07:22:18;;;;;;;6.45;4.05;;;16.90;99.90;;;16.23;100.00;97653.38;4933529;29;20427;-75
2022/09/04 07:25:08;;;;;;;5.22;4.00;;;17.00;99.90;;;16.35;100.00;97652.97;4934923;29;20455;-75
2022/09/04 07:27:58;;;;;;;6.07;3.90;;;17.10;99.90;;;16.46;100.00;97648.34;4932881;29;20468;-76
2022/09/04 07:30:28;;;;;;;5.85;3.88;;;17.20;99.90;;;16.57;100.00;97661.31;4934024;29;20496;-75
2022/09/04 07:32:59;;;;;;;4.82;4.00;;;17.30;99.90;;;16.63;100.00;97656.75;4932711;29;20498;-75
2022/09/04 07:35:33;;;;;;;4.38;3.97;;;17.40;99.90;;;16.72;100.00;97656.94;4935598;29;20408;-75
2022/09/04 07:38:13;;;;;;;6.10;3.90;;;17.40;99.90;;;16.81;100.00;97666.72;4935554;29;20543;-75
2022/09/04 07:40:43;;;;;;;4.18;3.75;;;17.50;99.90;;;16.91;100.00;97669.28;4933667;29;20526;-75
2022/09/04 07:43:20;;;;;;;5.30;3.63;;;17.60;99.90;;;17.00;100.00;97672.91;4934741;29;20411;-73
2022/09/04 07:45:57;;;;;;;4.35;3.65;;;17.70;99.90;;;17.13;100.00;97670.66;4933903;29;20494;-73
2022/09/04 07:48:31;;;;;;;6.30;3.92;;;17.80;99.90;;;17.27;100.00;97680.38;4933386;29;20418;-74
2022/09/04 07:51:06;;;;;;;5.97;3.20;;;17.90;99.90;;;17.38;100.00;97678.34;4934350;29;20928;-75
2022/09/04 07:54:35;;;;;;;3.97;3.20;;;18.10;99.90;;;17.62;100.00;97681.00;4934412;29;20929;-75
2022/09/04 07:57:28;;;;;;;4.37;3.50;;;18.30;99.90;;;17.59;100.00;97693.03;4905674;29;20441;-76
2022/09/04 08:00:09;;;;;;;4.97;3.40;;;18.30;99.90;;;17.72;100.00;97699.63;4952202;23;20998;-73
2022/09/04 08:03:19;;;;;;;5.40;3.45;;;18.40;99.90;;;17.80;100.00;97696.28;4950266;29;20521;-73
2022/09/04 08:05:53;;;;;;;4.07;3.10;;;18.40;99.90;;;17.88;100.00;97694.84;4950226;29;20422;-74
2022/09/04 08:09:16;;;;;;;4.57;3.45;;;18.50;99.90;;;17.91;100.00;97699.59;4951833;29;20417;-73
2022/09/04 08:12:14;;;;;;;4.10;3.40;;;18.60;99.90;;;17.92;100.00;97711.91;4933022;29;20548;-73
2022/09/04 08:14:53;;;;;;;4.95;3.08;;;18.60;99.90;;;18.02;100.00;97701.84;4929135;29;20439;-73
2022/09/04 08:17:43;;;;;;;4.28;3.10;;;18.60;99.90;;;18.17;100.00;97708.88;4933379;29;20412;-73
2022/09/04 08:20:42;;;;;;;6.43;3.03;;;18.70;99.90;;;18.24;100.00;97703.94;4933299;29;20518;-73
2022/09/04 08:23:28;;;;;;;3.77;2.63;;;18.90;99.90;;;18.29;100.00;97709.19;4932308;29;20517;-73
2022/09/04 08:26:10;;;;;;;4.30;3.15;;;19.00;99.90;;;18.42;100.00;97713.00;4934095;29;20945;-73
2022/09/04 08:29:10;;;;;;;4.77;2.60;;;19.10;99.90;;;18.55;100.00;97718.44;4933663;29;20415;-72
2022/09/04 08:31:41;;;;;;;4.77;2.60;;;19.10;99.90;;;18.60;100.00;97725.59;4933804;29;20984;-72
2022/09/04 08:34:51;;;;;;;4.43;2.53;;;19.20;99.90;;;18.61;100.00;97719.16;4932218;29;21246;-73
2022/09/04 08:37:26;;;;;;;4.00;2.50;;;19.20;99.90;;;18.63;100.00;97727.72;4898255;29;20538;-72
2022/09/04 08:40:43;;;;;;;5.28;2.53;;;19.30;99.90;;;18.49;100.00;97727.63;4933064;29;20419;-72
2022/09/04 08:43:59;;;;;;;3.27;2.50;;;19.10;99.90;;;18.44;100.00;97737.63;4927470;29;20470;-72
2022/09/04 08:47:30;;;;;;;4.32;1.95;;;19.10;99.90;;;18.25;100.00;97739.56;4933529;29;20408;-72
2022/09/04 08:50:16;;;;;;;2.70;2.10;;;18.90;99.90;;;18.22;100.00;97740.13;4933418;29;20399;-72
2022/09/04 08:53:32;;;;;;;2.60;2.33;;;18.90;99.90;;;18.19;100.00;97744.97;4931196;29;20415;-72
2022/09/04 08:56:25;;;;;;;4.32;2.20;;;18.80;99.90;;;18.26;100.00;97743.84;4924474;29;20965;-72
2022/09/04 08:59:39;;;;;;;3.93;2.20;;;18.90;99.90;;;18.42;100.00;97740.59;4932397;29;20427;-72
2022/09/04 09:02:47;;;;;;;4.40;2.20;;;19.00;99.90;;;18.61;100.00;97739.81;4931823;29;20423;-75
2022/09/04 09:06:05;;;;;;;7.88;2.10;;;19.20;99.90;;;18.81;100.00;97739.44;4915398;29;20477;-75
2022/09/04 09:09:13;;;;;;;3.30;2.20;;;19.40;99.90;;;18.97;100.00;97734.59;4915314;29;20780;-75
2022/09/04 09:12:28;;;;;;;3.58;2.17;;;19.50;99.90;;;19.11;100.00;97732.72;4914790;29;20413;-75
2022/09/04 09:15:47;;;;;;;3.13;1.98;;;19.70;99.90;;;19.26;100.00;97735.13;4914883;29;20892;-75
2022/09/04 09:18:36;;;;;;;3.30;2.05;;;19.80;99.90;;;19.35;100.00;97733.34;4915196;29;20501;-74
2022/09/04 09:21:08;;;;;;;2.00;1.80;;;19.90;99.90;;;19.44;100.00;97733.44;4920801;29;20431;-73
2022/09/04 09:23:57;;;;;;;5.00;2.00;;;20.00;99.90;;;19.51;100.00;97734.66;4930211;29;20498;-74
2022/09/04 09:26:27;;;;;;;2.05;1.85;;;20.10;99.90;;;19.59;100.00;97731.28;4916572;29;20454;-72
2022/09/04 09:29:34;;;;;;;4.00;1.85;;;20.10;99.90;;;19.71;98.73;97728.84;4931334;29;20411;-72
2022/09/04 09:32:44;;;;;;;2.57;1.70;;;20.30;99.90;;;19.85;98.09;97733.41;4932805;29;20418;-73
2022/09/04 09:35:54;;;;;;;2.85;2.03;;;20.40;99.90;;;19.91;96.67;97724.16;4932785;29;20786;-73
2022/09/04 09:39:11;;;;;;;3.78;1.63;;;20.50;99.90;;;19.78;94.50;97728.44;4933747;29;20399;-72
2022/09/04 09:42:09;;;;;;;3.67;1.92;;;20.40;99.90;;;19.79;96.03;97726.53;4933656;29;20969;-73
2022/09/04 09:45:25;;;;;;;3.75;2.03;;;20.30;99.90;;;19.91;96.35;97726.84;4926298;29;20430;-72
2022/09/04 09:48:49;;;;;;;4.40;1.90;;;20.40;99.90;;;20.13;96.30;97723.38;4911064;29;20475;-74
2022/09/04 09:51:49;;;;;;;3.35;1.98;;;20.60;99.90;;;20.21;91.99;97726.16;4933479;29;20407;-74
2022/09/04 09:55:03;;;;;;;3.05;1.90;;;20.70;99.90;;;20.20;91.35;97726.44;4933056;29;20419;-74
2022/09/04 09:58:24;;;;;;;4.18;1.80;;;20.80;99.90;;;20.32;92.85;97716.72;4931495;29;20436;-74
2022/09/04 10:01:04;;;;;;;3.80;2.10;;;20.90;99.90;;;20.53;92.80;97721.63;4930250;29;20949;-74
2022/09/04 10:04:20;;;;;;;3.90;1.80;;;21.00;99.90;;;20.83;92.38;97729.72;4933031;29;20407;-71
2022/09/04 10:07:35;;;;;;;1.98;1.60;;;21.20;99.90;;;21.10;90.74;97719.88;4933062;29;20905;-73
2022/09/04 10:10:36;;;;;;;2.03;1.50;;;21.50;99.90;;;21.40;89.41;97723.66;4933347;29;20770;-74
2022/09/04 10:13:39;;;;;;;4.00;1.70;;;21.80;99.90;;;21.71;88.36;97720.88;4932884;29;20468;-74
2022/09/04 10:16:46;;;;;;;5.32;1.80;;;22.10;99.90;;;21.93;86.00;97712.66;4933376;29;20407;-73
2022/09/04 10:19:52;;;;;;;3.97;1.75;;;22.40;99.90;;;21.94;83.86;97708.84;4933398;29;20494;-73
2022/09/04 10:23:04;;;;;;;2.33;1.63;;;22.50;99.90;;;21.81;85.04;97710.56;4931389;29;20478;-73
2022/09/04 10:26:13;;;;;;;2.22;1.60;;;22.30;99.90;;;21.50;85.20;97710.69;4931832;29;20921;-73
2022/09/04 10:29:32;;;;;;;3.05;1.60;;;22.10;99.90;;;21.17;84.33;97720.25;4933236;29;20502;-73
2022/09/04 10:32:33;;;;;;;3.55;2.00;;;21.80;99.90;;;20.79;84.98;97718.00;4933173;29;20466;-74
2022/09/04 10:35:17;;;;;;;2.35;1.70;;;21.50;99.90;;;20.54;86.58;97707.06;4932739;29;20408;-73
2022/09/04 10:38:12;;;;;;;2.92;1.95;;;21.20;99.90;;;20.37;89.50;97715.84;4933032;29;20407;-73
2022/09/04 10:41:07;;;;;;;2.60;1.80;;;21.00;99.90;;;20.21;90.72;97711.91;4933519;29;20423;-73
2022/09/04 10:44:03;;;;;;;2.70;1.90;;;20.80;99.90;;;20.10;90.44;97717.50;4936586;29;20430;-73
2022/09/04 10:46:41;;;;;;;3.50;1.70;;;20.70;99.90;;;20.13;92.40;97713.44;4936916;29;20484;-73
2022/09/04 10:49:50;;;;;;;3.13;1.50;;;20.70;99.90;;;20.36;93.08;97711.56;4936799;29;20407;-73
2022/09/04 10:53:13;;;;;;;3.17;1.40;;;20.90;99.90;;;20.55;85.91;97705.97;4936775;29;20407;-73
2022/09/04 10:56:07;;;;;;;2.63;1.55;;;21.10;99.90;;;21.02;87.14;97701.78;4927513;29;20451;-73
2022/09/04 10:59:14;;;;;;;1.30;1.20;;;21.50;99.90;;;21.35;85.89;97704.97;4936836;29;20790;-73
2022/09/04 11:02:21;;;;;;;2.40;1.37;;;21.80;99.90;;;21.81;82.57;97701.69;4936551;29;20518;-73
2022/09/04 11:05:23;;;;;;;2.25;1.30;;;22.20;99.90;;;21.98;79.78;97702.53;4936204;29;20503;-73
2022/09/04 11:08:25;;;;;;;2.40;1.40;;;22.40;99.90;;;22.27;81.80;97703.78;4936547;29;20507;-73
2022/09/04 11:11:10;;;;;;;2.85;1.33;;;22.70;99.90;;;21.95;64.87;97697.72;4936456;29;20408;-73
2022/09/04 11:14:11;;;;;;;1.77;1.48;;;22.60;92.00;;;22.22;70.95;97698.56;4934943;29;20423;-73
2022/09/04 11:17:52;;;;;;;3.80;1.50;;;22.60;99.90;;;22.36;75.80;97712.66;4936437;29;20411;-72
2022/09/04 11:21:28;;;;;;;2.47;1.58;;;22.80;99.90;;;22.28;76.82;97703.47;4858609;29;20442;-73
2022/09/04 11:24:46;;;;;;;2.00;1.50;;;22.70;99.90;;;22.11;75.00;97695.38;4935676;29;20407;-73
2022/09/04 11:28:04;;;;;;;1.85;1.38;;;22.60;99.90;;;22.03;77.71;97696.19;4936169;29;20901;-73
2022/09/04 11:30:47;;;;;;;1.50;1.30;;;22.50;99.90;;;21.92;79.45;97695.69;4904356;29;20419;-73
2022/09/04 11:34:08;;;;;;;2.77;1.50;;;22.40;99.90;;;21.76;81.21;97699.97;4934474;29;20419;-73
2022/09/04 11:37:14;;;;;;;3.38;1.60;;;22.30;99.90;;;21.62;83.12;97704.69;4933600;29;20989;-74
2022/09/04 11:40:10;;;;;;;2.47;1.70;;;22.20;99.90;;;21.46;83.27;97703.56;4935849;29;20507;-74
2022/09/04 11:43:00;;;;;;;4.72;1.80;;;22.00;99.90;;;21.22;79.79;97702.06;4935709;29;21010;-73
2022/09/04 11:46:25;;;;;;;2.10;1.40;;;21.80;99.90;;;21.26;79.85;97696.06;4935931;29;20408;-73
2022/09/04 11:49:41;;;;;;;3.37;1.67;;;21.80;99.90;;;21.18;82.78;97701.09;4916588;29;20876;-73
2022/09/04 11:52:25;;;;;;;3.00;1.70;;;21.70;99.90;;;21.13;81.13;97698.50;4935232;29;20499;-74